Погода Ларанжал-Паулистана 2 недели

Сан-Паулу, Бразилия

18 - 31 июля
  • 18июля
    Сегодня
    +12°
    +27°
    Ясно и безоблачно
    ВремяПогодаТемператураВлажностьДавлениеВетер, м/сВероятность осадков
    00:00Ясно и безоблачно+17°C85 %726 мм1.4 м/с5 %
    03:00Ясно и безоблачно+15°C94 %725 мм1.6 м/с5 %
    06:00Ясно и безоблачно+14°C97 %725 мм1.6 м/с5 %
    09:00Ясно и безоблачно+17°C78 %727 мм0.6 м/с5 %
    12:00Ясно и безоблачно+24°C53 %727 мм0.2 м/с5 %
    15:00Ясно и безоблачно+26°C43 %726 мм0.4 м/с5 %
    18:00Ясно и безоблачно+23°C62 %725 мм2.0 м/с5 %
    21:00Ясно и безоблачно+19°C85 %726 мм3.7 м/с5 %
  • 19июля
    Пятница
    +12°
    +27°
    Ясно и безоблачно
    ВремяПогодаТемператураВлажностьДавлениеВетер, м/сВероятность осадков
    00:00Ясно и безоблачно+16°C96 %727 мм3.3 м/с5 %
    03:00Практически безоблачно+15°C97 %727 мм2.0 м/с5 %
    06:00Практически безоблачно+13°C96 %727 мм1.9 м/с5 %
    09:00Ясно и безоблачно+15°C82 %729 мм2.6 м/с5 %
    12:00Ясно и безоблачно+22°C54 %729 мм1.7 м/с5 %
    15:00Ясно и безоблачно+26°C42 %727 мм1.3 м/с5 %
    18:00Ясно и безоблачно+22°C61 %727 мм2.1 м/с5 %
    21:00Ясно и безоблачно+18°C77 %727 мм2.3 м/с5 %
  • 20июля
    Суббота
    +11°
    +27°
    Ясно и безоблачно
    ВремяПогодаТемператураВлажностьДавлениеВетер, м/сВероятность осадков
    00:00Ясно и безоблачно+15°C93 %727 мм2.3 м/с5 %
    03:00Ясно и безоблачно+14°C97 %726 мм2.0 м/с5 %
    06:00Пасмурно, сплошная облачность+13°C100 %727 мм2.3 м/с5 %
    09:00Небольшая облачность+13°C90 %728 мм2.7 м/с5 %
    12:00Ясно и безоблачно+22°C49 %728 мм2.0 м/с5 %
    15:00Ясно и безоблачно+26°C38 %726 мм0.9 м/с5 %
    18:00Ясно и безоблачно+22°C57 %725 мм2.1 м/с5 %
    21:00Ясно и безоблачно+18°C88 %726 мм3.5 м/с5 %
  • 21июля
    Воскресенье
    +12°
    +27°
    Ясно и безоблачно
    ВремяПогодаТемператураВлажностьДавлениеВетер, м/сВероятность осадков
    00:00Ясно и безоблачно+15°C95 %726 мм2.8 м/с5 %
    03:00Ясно и безоблачно+13°C95 %725 мм2.4 м/с5 %
    06:00Ясно и безоблачно+12°C96 %725 мм1.9 м/с5 %
    09:00Ясно и безоблачно+15°C82 %727 мм1.6 м/с5 %
    12:00Ясно и безоблачно+23°C60 %727 мм0.6 м/с5 %
    15:00Ясно и безоблачно+27°C48 %725 мм0.9 м/с5 %
    18:00Ясно и безоблачно+23°C61 %725 мм1.3 м/с5 %
    21:00Ясно и безоблачно+19°C78 %725 мм1.8 м/с5 %
  • 22июля
    Понедельник
    +13°
    +28°
    Ясно и безоблачно
    ВремяПогодаТемператураВлажностьДавлениеВетер, м/сВероятность осадков
    00:00Ясно и безоблачно+16°C91 %725 мм1.8 м/с5 %
    03:00Ясно и безоблачно+14°C95 %725 мм1.8 м/с5 %
    06:00Ясно и безоблачно+14°C97 %725 мм1.8 м/с5 %
    09:00Практически безоблачно+16°C82 %727 мм1.1 м/с5 %
    12:00Ясно и безоблачно+25°C50 %727 мм1.1 м/с5 %
    15:00Ясно и безоблачно+28°C40 %726 мм0.8 м/с5 %
    18:00Ясно и безоблачно+24°C55 %726 мм2.0 м/с5 %
    21:00Ясно и безоблачно+20°C89 %727 мм3.8 м/с5 %
Мы используем cookies
Соглашаюсь